Terminal Aerodrome Forecast
Issued by NWS Binghamton, NY

Home | Current Version | Previous Version | Text Only | Print | Product List | Glossary On
Versions: 1 2 3 4 5 6 7 8 9 10 11 12 13 14 15 16 17 18 19 20 21
000
FTUS41 KBGM 241100
TAFAVP
TAF
KAVP 241134Z 2412/2512 19015G30KT P6SM SCT015 OVC025
     FM241500 21012G25KT P6SM SCT025 OVC035
     FM241800 23015G25KT P6SM BKN040
     FM250000 25012G22KT P6SM BKN040=

USA.gov is the U.S. government's official web portal to all federal, state and local government web resources and services.